TimeCDT,TemperatureF,Dew PointF,Humidity,Sea Level PressureIn,VisibilityMPH,Wind Direction,Wind SpeedMPH,Gust SpeedMPH,PrecipitationIn,Events,Conditions,WindDirDegrees,DateUTC
12:15 AM,71.6,66.2,83,30.03,10.0,SSE,19.6,24.2,N/A,,Overcast,160,2013-05-25 05:15:00
12:35 AM,71.6,66.2,83,30.03,10.0,SSE,17.3,25.3,N/A,,Overcast,160,2013-05-25 05:35:00
12:55 AM,71.6,66.2,83,30.02,10.0,South,17.3,-,N/A,,Overcast,170,2013-05-25 05:55:00
1:15 AM,73.4,66.2,78,30.00,10.0,South,20.7,28.8,N/A,,Overcast,180,2013-05-25 06:15:00
1:35 AM,71.6,66.2,83,29.99,10.0,South,24.2,32.2,N/A,,Mostly Cloudy,180,2013-05-25 06:35:00
1:55 AM,71.6,66.2,83,29.98,10.0,South,23.0,29.9,N/A,,Partly Cloudy,180,2013-05-25 06:55:00
2:15 AM,71.6,64.4,78,29.98,10.0,South,20.7,31.1,N/A,,Clear,180,2013-05-25 07:15:00
2:35 AM,69.8,64.4,83,29.97,10.0,South,24.2,28.8,N/A,,Clear,180,2013-05-25 07:35:00
2:55 AM,69.8,64.4,83,29.97,10.0,South,21.9,28.8,N/A,,Clear,180,2013-05-25 07:55:00
3:15 AM,69.8,62.6,78,29.96,10.0,South,21.9,28.8,N/A,,Clear,180,2013-05-25 08:15:00
3:35 AM,69.8,62.6,78,29.95,10.0,South,21.9,28.8,N/A,,Clear,190,2013-05-25 08:35:00
3:55 AM,69.8,60.8,73,29.95,10.0,South,20.7,26.5,N/A,,Clear,180,2013-05-25 08:55:00
4:15 AM,69.8,60.8,73,29.95,10.0,South,21.9,27.6,N/A,,Clear,180,2013-05-25 09:15:00
4:35 AM,68.0,59.0,73,29.93,10.0,South,21.9,28.8,N/A,,Clear,170,2013-05-25 09:35:00
4:55 AM,68.0,57.2,68,29.93,10.0,South,25.3,29.9,N/A,,Clear,170,2013-05-25 09:55:00
5:15 AM,66.2,57.2,73,29.93,10.0,South,21.9,28.8,N/A,,Clear,170,2013-05-25 10:15:00
5:35 AM,66.2,57.2,73,29.93,10.0,South,20.7,28.8,N/A,,Clear,180,2013-05-25 10:35:00
5:55 AM,66.2,57.2,73,29.96,10.0,South,16.1,23.0,N/A,,Clear,190,2013-05-25 10:55:00
6:15 AM,66.2,57.2,73,29.99,10.0,SSW,15.0,-,N/A,,Clear,200,2013-05-25 11:15:00
6:35 AM,66.2,57.2,73,29.99,10.0,South,15.0,19.6,N/A,,Clear,190,2013-05-25 11:35:00
6:55 AM,66.2,55.4,68,30.01,10.0,South,3.5,-,N/A,,Clear,190,2013-05-25 11:55:00
7:15 AM,66.2,57.2,73,30.01,10.0,South,9.2,-,N/A,,Clear,190,2013-05-25 12:15:00
7:35 AM,66.2,57.2,73,30.00,10.0,South,16.1,-,N/A,,Clear,190,2013-05-25 12:35:00
7:55 AM,68.0,57.2,68,30.01,10.0,South,16.1,-,N/A,,Clear,190,2013-05-25 12:55:00
8:15 AM,69.8,59.0,68,30.02,10.0,South,16.1,19.6,N/A,,Clear,180,2013-05-25 13:15:00
8:35 AM,69.8,57.2,64,30.03,10.0,South,12.7,-,N/A,,Clear,170,2013-05-25 13:35:00
8:55 AM,69.8,57.2,64,30.05,10.0,South,5.8,-,N/A,,Clear,190,2013-05-25 13:55:00
9:15 AM,69.8,59.0,68,30.05,10.0,ESE,4.6,-,N/A,,Clear,110,2013-05-25 14:15:00
9:35 AM,73.4,60.8,65,30.04,10.0,SSE,8.1,-,N/A,,Clear,150,2013-05-25 14:35:00
9:55 AM,73.4,60.8,65,30.03,10.0,SSW,13.8,19.6,N/A,,Clear,200,2013-05-25 14:55:00
10:15 AM,73.4,59.0,61,30.03,10.0,South,6.9,-,N/A,,Clear,190,2013-05-25 15:15:00
10:35 AM,73.4,59.0,61,30.04,10.0,SSW,11.5,16.1,N/A,,Clear,200,2013-05-25 15:35:00
10:55 AM,77.0,60.8,57,30.02,10.0,SW,11.5,17.3,N/A,,Clear,220,2013-05-25 15:55:00
11:15 AM,77.0,60.8,57,30.01,10.0,South,15.0,-,N/A,,Clear,190,2013-05-25 16:15:00
11:35 AM,78.8,60.8,54,30.00,10.0,SSW,13.8,19.6,N/A,,Clear,200,2013-05-25 16:35:00
11:55 AM,80.6,60.8,51,30.01,10.0,SSW,18.4,25.3,N/A,,Clear,210,2013-05-25 16:55:00
12:15 PM,80.6,60.8,51,29.99,10.0,SSW,18.4,24.2,N/A,,Clear,210,2013-05-25 17:15:00
12:35 PM,78.8,60.8,54,29.99,10.0,South,16.1,20.7,N/A,,Clear,180,2013-05-25 17:35:00
12:55 PM,80.6,62.6,54,29.98,10.0,South,16.1,20.7,N/A,,Clear,170,2013-05-25 17:55:00
1:15 PM,84.2,62.6,48,29.97,10.0,SSW,19.6,24.2,N/A,,Clear,200,2013-05-25 18:15:00
1:35 PM,84.2,62.6,48,29.96,10.0,South,17.3,28.8,N/A,,Clear,180,2013-05-25 18:35:00
1:55 PM,86.0,62.6,45,29.95,10.0,South,20.7,31.1,N/A,,Clear,190,2013-05-25 18:55:00
2:15 PM,87.8,60.8,40,29.93,10.0,South,23.0,28.8,N/A,,Clear,180,2013-05-25 19:15:00
2:35 PM,87.8,60.8,40,29.93,10.0,South,23.0,28.8,N/A,,Clear,190,2013-05-25 19:35:00
2:55 PM,89.6,60.8,38,29.92,10.0,South,20.7,33.4,N/A,,Clear,180,2013-05-25 19:55:00
3:15 PM,89.6,60.8,38,29.91,10.0,South,23.0,32.2,N/A,,Clear,190,2013-05-25 20:15:00
3:35 PM,89.6,60.8,38,29.91,10.0,South,25.3,28.8,N/A,,Clear,190,2013-05-25 20:35:00
3:55 PM,89.6,60.8,38,29.90,10.0,South,21.9,33.4,N/A,,Clear,180,2013-05-25 20:55:00
4:15 PM,89.6,60.8,38,29.90,10.0,South,24.2,33.4,N/A,,Clear,180,2013-05-25 21:15:00
4:35 PM,89.6,59.0,36,29.89,10.0,SSW,26.5,34.5,N/A,,Clear,200,2013-05-25 21:35:00
4:55 PM,89.6,60.8,38,29.89,10.0,South,28.8,34.5,N/A,,Clear,170,2013-05-25 21:55:00
5:15 PM,89.6,60.8,38,29.89,10.0,South,23.0,31.1,N/A,,Clear,180,2013-05-25 22:15:00
5:35 PM,87.8,59.0,38,29.88,10.0,South,28.8,38.0,N/A,,Clear,170,2013-05-25 22:35:00
5:55 PM,87.8,60.8,40,29.88,10.0,South,25.3,36.8,N/A,,Clear,170,2013-05-25 22:55:00
6:15 PM,86.0,60.8,43,29.87,10.0,SSE,27.6,33.4,N/A,,Clear,150,2013-05-25 23:15:00
6:35 PM,84.2,60.8,45,29.87,10.0,ESE,21.9,31.1,N/A,,Clear,120,2013-05-25 23:35:00
6:55 PM,84.2,60.8,45,29.86,10.0,East,24.2,33.4,N/A,,Clear,100,2013-05-25 23:55:00
7:15 PM,82.4,60.8,48,29.87,10.0,ESE,23.0,33.4,N/A,,Clear,120,2013-05-26 00:15:00
7:35 PM,80.6,60.8,51,29.88,10.0,ENE,24.2,31.1,N/A,,Clear,70,2013-05-26 00:35:00
7:55 PM,80.6,60.8,51,29.88,10.0,SE,23.0,-,N/A,,Clear,130,2013-05-26 00:55:00
8:15 PM,78.8,60.8,54,29.89,10.0,SE,19.6,25.3,N/A,,Clear,140,2013-05-26 01:15:00
8:35 PM,78.8,60.8,54,29.89,10.0,SE,20.7,24.2,N/A,,Clear,140,2013-05-26 01:35:00
8:55 PM,77.0,60.8,57,29.89,10.0,SE,16.1,20.7,N/A,,Clear,140,2013-05-26 01:55:00
9:15 PM,77.0,60.8,57,29.89,10.0,SSE,17.3,23.0,N/A,,Clear,150,2013-05-26 02:15:00
9:35 PM,75.2,60.8,61,29.89,10.0,SSE,16.1,21.9,N/A,,Clear,160,2013-05-26 02:35:00
9:55 PM,75.2,60.8,61,29.90,10.0,SSE,16.1,-,N/A,,Clear,160,2013-05-26 02:55:00
10:15 PM,75.2,60.8,61,29.91,10.0,SE,16.1,23.0,N/A,,Clear,140,2013-05-26 03:15:00
10:35 PM,73.4,62.6,69,29.93,10.0,SSE,18.4,-,N/A,,Clear,150,2013-05-26 03:35:00
10:55 PM,73.4,62.6,69,29.96,10.0,SSE,17.3,-,N/A,,Clear,150,2013-05-26 03:55:00
11:15 PM,71.6,62.6,73,29.96,10.0,SSE,15.0,23.0,N/A,,Clear,160,2013-05-26 04:15:00
11:35 PM,71.6,62.6,73,29.95,10.0,SSE,15.0,23.0,N/A,,Clear,160,2013-05-26 04:35:00
11:55 PM,71.6,62.6,73,29.95,10.0,SSE,11.5,18.4,N/A,,Clear,160,2013-05-26 04:55:00